East Worcester, New York
Current Conditions -  °F | °C
As of 9:55 PM on Saturday 25 Oct 2014 (Local Time) from KNY0 Reporting Station
Scattered Clouds Scattered Clouds  
Wind Chill: 51°   Ceiling: Unl
Heat Index: 51°   Visibility: 10mi
Dew Point: 45°   Wind: 10mph
Humidity: 81%   Direction: 290°WNW
Pressure: 29.56"   Gusts: 20mph
Location:  42.62°N, 74.67°W
Report Text: KNY0 260155Z AUTO 29009G17KT 10SM SCT025 11/07 A2956 RMK AO2 T01050074
Loading
Personal Weather Stations






























Interactive Weather Map
Tropical Storm Tracking
New forecast layout! Learn more

10-Day Weather Forecast

Advertisements
Track Severe Weather on mobile